Time;durP1;ratioP1;P1;durP2;ratioP2;P2;SDS_P1;SDS_P2;PMS_P1;PMS_P2;Temp;Humidity;BMP_temperature;BMP_pressure;BME280_temperature;BME280_humidity;BME280_pressure;Samples;Min_cycle;Max_cycle;Signal;HPM_P1;HPM_P2
2024/01/27 00:02:09;;;;;;;;;;;;;;;7.16;79.49;99979.50;4382913;32;34760;-85
2024/01/27 00:04:40;;;;;;;;;;;;;;;7.01;78.66;99985.44;4387289;32;33974;-84
2024/01/27 00:07:20;;;;;;;;;;;;;;;6.97;78.37;99981.97;4387913;32;34690;-84
2024/01/27 00:09:51;;;;;;;;;;;;;;;7.02;78.41;99969.09;4383925;32;33472;-84
2024/01/27 00:12:22;;;;;;;;;;;;;;;7.14;78.20;99974.34;4382326;32;34239;-84
2024/01/27 00:14:57;;;;;;;;;;;;;;;6.86;78.84;99975.88;4385686;32;33499;-84
2024/01/27 00:17:27;;;;;;;;;;;;;;;6.83;78.50;99991.34;4390461;32;34404;-84
2024/01/27 00:19:59;;;;;;;;;;;;;;;6.80;77.01;99978.44;4383184;32;35389;-84
2024/01/27 00:22:29;;;;;;;;;;;;;;;6.86;75.53;99982.75;4385249;32;33808;-84
2024/01/27 00:25:02;;;;;;;;;;;;;;;6.74;75.90;99996.41;4386187;32;33943;-83
2024/01/27 00:27:30;;;;;;;;;;;;;;;6.84;73.01;100024.03;4382914;32;33398;-84
2024/01/27 00:30:00;;;;;;;;;;;;;;;6.89;70.78;100029.22;4386708;32;34493;-84
2024/01/27 00:32:29;;;;;;;;;;;;;;;6.94;70.66;100014.63;4385318;32;33928;-84
2024/01/27 00:34:57;;;;;;;;;;;;;;;6.99;69.98;100015.53;4375046;32;33872;-84
2024/01/27 00:37:32;;;;;;;;;;;;;;;7.02;68.57;100046.50;4385005;32;34073;-84
2024/01/27 00:40:05;;;;;;;;;;;;;;;7.17;67.88;100037.97;4381363;32;34515;-84
2024/01/27 00:42:37;;;;;;;;;;;;;;;7.18;67.31;100048.31;4389417;32;34530;-83
2024/01/27 00:45:06;;;;;;;;;;;;;;;7.11;67.62;100050.87;4384674;32;33594;-83
2024/01/27 00:47:35;;;;;;;;;;;;;;;7.12;67.29;100063.75;4386182;32;34214;-84
2024/01/27 00:50:08;;;;;;;;;;;;;;;6.94;68.31;100066.22;4390341;32;33758;-84
2024/01/27 00:52:38;;;;;;;;;;;;;;;7.23;67.60;100087.91;4356347;32;1104405;-84
2024/01/27 00:55:08;;;;;;;;;;;;;;;7.20;67.90;100092.19;4385836;32;32343;-84
2024/01/27 00:57:37;;;;;;;;;;;;;;;7.21;67.93;100102.53;4411466;27;33918;-84
2024/01/27 01:00:07;;;;;;;;;;;;;;;7.19;67.56;100106.81;4424760;26;33957;-83
2024/01/27 01:02:37;;;;;;;;;;;;;;;7.10;67.92;100129.94;4404384;32;33796;-83
2024/01/27 01:05:06;;;;;;;;;;;;;;;7.20;67.11;100116.28;4406661;32;33400;-82
2024/01/27 01:07:34;;;;;;;;;;;;;;;6.99;67.53;100106.66;4400806;32;34213;-83
2024/01/27 01:10:07;;;;;;;;;;;;;;;6.99;68.22;100114.41;4400324;32;32847;-83
2024/01/27 01:12:40;;;;;;;;;;;;;;;6.93;68.26;100111.75;4402373;32;34994;-83
2024/01/27 01:15:09;;;;;;;;;;;;;;;6.92;68.46;100134.97;4405480;32;33272;-82
2024/01/27 01:17:42;;;;;;;;;;;;;;;7.02;68.33;100127.31;4400601;32;33711;-83
2024/01/27 01:20:12;;;;;;;;;;;;;;;7.01;68.28;100124.75;4400652;32;33961;-82
2024/01/27 01:22:43;;;;;;;;;;;;;;;7.00;68.49;100134.16;4401799;32;34255;-82
2024/01/27 01:25:12;;;;;;;;;;;;;;;7.01;68.41;100125.59;4401040;32;32469;-82
2024/01/27 01:27:45;;;;;;;;;;;;;;;6.94;68.69;100134.12;4405809;32;33966;-82
2024/01/27 01:30:14;;;;;;;;;;;;;;;7.02;68.41;100145.37;4399272;32;34739;-82
2024/01/27 01:32:45;;;;;;;;;;;;;;;6.99;68.44;100122.13;4403200;32;34592;-81
2024/01/27 01:35:16;;;;;;;;;;;;;;;7.03;68.30;100169.44;4401366;32;33979;-82
2024/01/27 01:37:47;;;;;;;;;;;;;;;6.83;68.80;100146.06;4405607;32;33680;-82
2024/01/27 01:40:18;;;;;;;;;;;;;;;6.99;68.47;100168.56;4402919;32;34339;-82
2024/01/27 01:42:52;;;;;;;;;;;;;;;7.02;68.38;100160.84;4402011;32;33550;-82
2024/01/27 01:45:21;;;;;;;;;;;;;;;7.22;67.70;100163.63;4402817;32;33401;-82
2024/01/27 01:47:55;;;;;;;;;;;;;;;7.16;66.79;100181.62;4400080;32;33961;-82
2024/01/27 01:50:24;;;;;;;;;;;;;;;7.04;67.08;100178.94;4405950;32;33832;-81
2024/01/27 01:53:01;;;;;;;;;;;;;;;6.89;66.33;100187.41;4400335;32;33859;-82
2024/01/27 01:55:34;;;;;;;;;;;;;;;6.72;66.59;100200.13;4401986;32;33368;-82
2024/01/27 01:58:03;;;;;;;;;;;;;;;6.72;66.06;100194.97;4399638;32;33360;-82
2024/01/27 02:00:37;;;;;;;;;;;;;;;6.86;65.82;100201.97;4399847;32;34719;-81
2024/01/27 02:03:06;;;;;;;;;;;;;;;6.88;64.37;100202.84;4405080;32;34476;-82
2024/01/27 02:05:36;;;;;;;;;;;;;;;6.70;63.91;100206.13;4400598;32;33035;-81
2024/01/27 02:08:05;;;;;;;;;;;;;;;6.62;64.61;100224.09;4400974;32;33489;-82
2024/01/27 02:10:38;;;;;;;;;;;;;;;6.69;63.30;100223.28;4393836;32;35474;-82
2024/01/27 02:13:20;;;;;;;;;;;;;;;6.63;63.19;100231.81;4390410;32;34721;-82
2024/01/27 02:15:50;;;;;;;;;;;;;;;6.59;63.01;100211.13;4388954;32;33866;-82
2024/01/27 02:18:22;;;;;;;;;;;;;;;6.83;62.17;100226.87;4380258;32;33551;-82
2024/01/27 02:20:52;;;;;;;;;;;;;;;6.79;62.26;100217.38;4381752;32;32197;-82
2024/01/27 02:23:20;;;;;;;;;;;;;;;6.87;61.13;100214.88;4377507;32;34048;-82
2024/01/27 02:25:51;;;;;;;;;;;;;;;6.67;62.09;100216.37;4390509;32;33091;-81
2024/01/27 02:28:23;;;;;;;;;;;;;;;6.70;61.96;100217.28;4377446;32;34234;-82
2024/01/27 02:30:52;;;;;;;;;;;;;;;6.77;61.67;100203.59;4369644;32;35121;-81
2024/01/27 02:33:27;;;;;;;;;;;;;;;6.39;62.00;100200.59;4373585;32;33671;-82
2024/01/27 02:35:56;;;;;;;;;;;;;;;6.67;61.06;100191.47;4369698;32;32715;-82
2024/01/27 02:38:27;;;;;;;;;;;;;;;6.34;61.80;100185.06;4374679;32;34034;-81
2024/01/27 02:40:58;;;;;;;;;;;;;;;6.22;62.04;100195.25;4378470;32;33642;-81
2024/01/27 02:43:29;;;;;;;;;;;;;;;6.19;62.44;100200.38;4387165;32;35140;-82
2024/01/27 02:45:59;;;;;;;;;;;;;;;6.43;61.49;100201.47;4381379;32;31863;-82
2024/01/27 02:48:29;;;;;;;;;;;;;;;6.53;61.31;100216.22;4392722;32;33660;-82
2024/01/27 02:51:02;;;;;;;;;;;;;;;6.57;60.58;100229.19;4383299;32;32950;-81
2024/01/27 02:53:31;;;;;;;;;;;;;;;6.49;60.84;100250.53;4375749;32;34268;-81
2024/01/27 02:56:01;;;;;;;;;;;;;;;6.40;60.85;100252.16;4372428;32;32692;-81
2024/01/27 02:58:33;;;;;;;;;;;;;;;6.36;61.30;100252.97;4373232;32;33459;-81
2024/01/27 03:01:01;;;;;;;;;;;;;;;6.53;60.60;100260.06;4390391;32;33908;-82
2024/01/27 03:03:36;;;;;;;;;;;;;;;6.45;61.10;100262.53;4380314;32;33772;-82
2024/01/27 03:06:05;;;;;;;;;;;;;;;6.28;61.49;100261.44;4382497;32;31976;-82
2024/01/27 03:08:35;;;;;;;;;;;;;;;6.24;61.74;100260.53;4375144;32;33946;-81
2024/01/27 03:11:04;;;;;;;;;;;;;;;6.18;61.73;100268.16;4377222;32;35137;-81
2024/01/27 03:13:34;;;;;;;;;;;;;;;6.44;61.35;100280.56;4384865;32;35277;-81
2024/01/27 03:16:03;;;;;;;;;;;;;;;6.30;62.00;100290.66;4383112;32;32988;-81
2024/01/27 03:18:33;;;;;;;;;;;;;;;6.61;60.89;100285.06;4381795;32;34507;-81
2024/01/27 03:21:07;;;;;;;;;;;;;;;6.48;61.82;100305.53;4384997;32;34768;-81
2024/01/27 03:23:39;;;;;;;;;;;;;;;6.27;62.55;100325.00;4380144;32;33607;-81
2024/01/27 03:26:09;;;;;;;;;;;;;;;6.13;62.65;100318.75;4377245;32;33118;-81
2024/01/27 03:28:38;;;;;;;;;;;;;;;6.20;62.67;100344.63;4379952;32;33934;-81
2024/01/27 03:31:10;;;;;;;;;;;;;;;6.03;63.12;100345.22;4386534;32;34580;-81
2024/01/27 03:33:44;;;;;;;;;;;;;;;6.09;62.91;100340.16;4390385;32;34184;-81
2024/01/27 03:36:13;;;;;;;;;;;;;;;6.15;63.24;100353.16;4381604;32;33050;-81
2024/01/27 03:38:43;;;;;;;;;;;;;;;6.27;62.57;100360.19;4380931;32;34419;-81
2024/01/27 03:41:13;;;;;;;;;;;;;;;6.35;62.44;100358.59;4386552;32;33946;-81
2024/01/27 03:43:47;;;;;;;;;;;;;;;6.37;62.14;100360.34;4382322;32;34196;-82
2024/01/27 03:46:15;;;;;;;;;;;;;;;6.36;62.11;100374.09;4382149;32;33017;-81
2024/01/27 03:48:44;;;;;;;;;;;;;;;6.23;62.75;100372.16;4371278;32;34586;-81
2024/01/27 03:51:13;;;;;;;;;;;;;;;6.10;63.10;100372.81;4386159;32;33978;-81
2024/01/27 03:53:48;;;;;;;;;;;;;;;6.22;62.88;100367.84;4387438;32;34828;-81
2024/01/27 03:56:19;;;;;;;;;;;;;;;6.19;63.03;100380.69;4386240;32;32748;-81
2024/01/27 03:58:47;;;;;;;;;;;;;;;5.98;64.20;100370.91;4391515;32;34044;-81
2024/01/27 04:01:17;;;;;;;;;;;;;;;6.04;63.89;100381.34;4384246;32;33798;-81
2024/01/27 04:03:46;;;;;;;;;;;;;;;5.98;64.22;100383.78;4376002;32;34817;-81
2024/01/27 04:06:18;;;;;;;;;;;;;;;5.97;64.07;100382.94;4383944;32;33382;-81
2024/01/27 04:08:48;;;;;;;;;;;;;;;6.09;64.30;100394.25;4391555;32;33482;-80
2024/01/27 04:11:23;;;;;;;;;;;;;;;5.71;65.38;100394.47;4386097;32;33345;-81
2024/01/27 04:13:53;;;;;;;;;;;;;;;5.68;65.94;100392.69;4390146;32;33889;-81
2024/01/27 04:16:21;;;;;;;;;;;;;;;5.64;66.36;100411.50;4382167;32;33857;-81
2024/01/27 04:18:55;;;;;;;;;;;;;;;5.53;66.52;100401.00;4381047;32;34589;-81
2024/01/27 04:21:24;;;;;;;;;;;;;;;5.30;67.19;100408.28;4390211;32;34096;-80
2024/01/27 04:23:53;;;;;;;;;;;;;;;5.40;66.98;100399.03;4372604;32;35259;-81
2024/01/27 04:26:29;;;;;;;;;;;;;;;5.40;67.14;100399.03;4381589;32;33376;-81
2024/01/27 04:28:58;;;;;;;;;;;;;;;5.64;66.06;100408.06;4371133;32;33798;-81
2024/01/27 04:31:27;;;;;;;;;;;;;;;5.58;65.22;100421.66;4379593;32;34928;-81
2024/01/27 04:33:58;;;;;;;;;;;;;;;5.45;65.11;100433.44;4378483;32;34090;-81
2024/01/27 04:36:28;;;;;;;;;;;;;;;5.36;64.09;100415.25;4386116;32;33711;-81
2024/01/27 04:39:00;;;;;;;;;;;;;;;5.50;63.27;100436.97;4374528;32;34456;-82
2024/01/27 04:41:30;;;;;;;;;;;;;;;5.50;63.17;100452.41;4372429;32;34339;-81
2024/01/27 04:44:06;;;;;;;;;;;;;;;5.78;62.56;100440.06;4389083;32;33890;-81
2024/01/27 04:46:35;;;;;;;;;;;;;;;5.83;62.10;100460.75;4387278;32;33409;-81
2024/01/27 04:49:08;;;;;;;;;;;;;;;5.49;63.25;100452.41;4385766;32;34346;-81
2024/01/27 04:51:38;;;;;;;;;;;;;;;5.55;62.61;100447.34;4385391;32;33808;-81
2024/01/27 04:54:07;;;;;;;;;;;;;;;5.54;62.68;100443.06;4377158;32;34460;-81
2024/01/27 04:56:37;;;;;;;;;;;;;;;5.52;62.60;100450.72;4384315;32;32906;-80
2024/01/27 04:59:06;;;;;;;;;;;;;;;5.47;62.88;100457.50;4385339;32;36885;-81
2024/01/27 05:01:35;;;;;;;;;;;;;;;5.30;62.99;100467.44;4385803;32;33584;-81
2024/01/27 05:04:09;;;;;;;;;;;;;;;5.34;63.19;100468.41;4387620;32;33730;-81
2024/01/27 05:06:39;;;;;;;;;;;;;;;5.23;63.00;100467.28;4391491;32;33116;-81
2024/01/27 05:09:08;;;;;;;;;;;;;;;5.25;62.87;100470.78;4385980;32;34919;-81
2024/01/27 05:11:38;;;;;;;;;;;;;;;5.32;62.58;100470.06;4385724;32;33974;-80
2024/01/27 05:14:07;;;;;;;;;;;;;;;5.31;62.19;100471.75;4372315;32;34182;-81
2024/01/27 05:16:39;;;;;;;;;;;;;;;5.25;62.52;100478.50;4370441;32;33272;-81
2024/01/27 05:19:08;;;;;;;;;;;;;;;5.34;61.74;100476.97;4375941;32;34052;-81
2024/01/27 05:21:39;;;;;;;;;;;;;;;5.31;61.74;100473.47;4370619;32;33998;-80
2024/01/27 05:24:09;;;;;;;;;;;;;;;5.51;60.56;100479.03;4370376;32;33953;-82
2024/01/27 05:26:42;;;;;;;;;;;;;;;5.28;60.39;100478.53;4370537;32;32587;-81
2024/01/27 05:29:16;;;;;;;;;;;;;;;5.20;60.64;100485.25;4375982;32;35469;-81
2024/01/27 05:31:45;;;;;;;;;;;;;;;5.39;60.15;100483.91;4370741;32;32443;-80
2024/01/27 05:34:18;;;;;;;;;;;;;;;5.25;59.67;100488.78;4374483;32;33590;-81
2024/01/27 05:36:46;;;;;;;;;;;;;;;5.09;59.75;100503.00;4370388;32;33303;-81
2024/01/27 05:39:18;;;;;;;;;;;;;;;5.41;58.73;100500.25;4370355;32;34366;-81
2024/01/27 05:41:49;;;;;;;;;;;;;;;5.42;58.41;100508.00;4375728;32;35167;-81
2024/01/27 05:44:18;;;;;;;;;;;;;;;5.33;57.86;100494.94;4390650;32;33277;-80
2024/01/27 05:46:47;;;;;;;;;;;;;;;5.18;58.08;100520.34;4385152;32;33473;-81
2024/01/27 05:49:17;;;;;;;;;;;;;;;5.28;58.35;100525.72;4384722;32;34860;-80
2024/01/27 05:51:48;;;;;;;;;;;;;;;5.43;57.33;100542.31;4390846;32;34043;-81
2024/01/27 05:54:21;;;;;;;;;;;;;;;5.52;56.98;100545.97;4387529;32;34459;-81
2024/01/27 05:56:51;;;;;;;;;;;;;;;5.32;57.41;100562.69;4385637;32;33953;-81
2024/01/27 05:59:25;;;;;;;;;;;;;;;5.10;57.97;100563.91;4384739;32;33707;-80
2024/01/27 06:01:54;;;;;;;;;;;;;;;5.15;57.86;100582.87;4385256;32;34364;-80
2024/01/27 06:04:24;;;;;;;;;;;;;;;4.91;58.60;100580.59;4390531;32;34766;-81
2024/01/27 06:06:52;;;;;;;;;;;;;;;5.02;58.28;100591.12;4385719;32;33638;-81
2024/01/27 06:09:23;;;;;;;;;;;;;;;5.12;58.23;100588.84;4385124;32;33700;-80
2024/01/27 06:11:54;;;;;;;;;;;;;;;5.26;57.84;100580.53;4378400;32;33606;-80
2024/01/27 06:14:22;;;;;;;;;;;;;;;5.36;57.93;100595.34;4433570;27;34783;-81
2024/01/27 06:16:53;;;;;;;;;;;;;;;4.96;58.94;100591.88;4397985;32;32115;-81
2024/01/27 06:19:25;;;;;;;;;;;;;;;5.37;58.51;100602.25;4387233;32;34175;-81
2024/01/27 06:21:54;;;;;;;;;;;;;;;5.39;58.48;100597.13;4390880;32;33828;-81
2024/01/27 06:24:24;;;;;;;;;;;;;;;5.35;59.02;100596.19;4440253;27;33630;-80
2024/01/27 06:26:55;;;;;;;;;;;;;;;5.24;59.69;100598.53;4407505;32;34216;-81
2024/01/27 06:29:26;;;;;;;;;;;;;;;5.29;59.98;100603.75;4401814;32;33963;-81
2024/01/27 06:31:56;;;;;;;;;;;;;;;5.25;60.41;100613.13;4402283;32;34196;-81
2024/01/27 06:34:26;;;;;;;;;;;;;;;5.05;61.22;100612.66;4403353;32;33549;-81
2024/01/27 06:36:55;;;;;;;;;;;;;;;5.26;60.75;100609.72;4407335;32;33028;-81
2024/01/27 06:39:24;;;;;;;;;;;;;;;5.22;61.09;100607.91;4406533;32;34590;-81
2024/01/27 06:41:59;;;;;;;;;;;;;;;5.16;61.31;100609.47;4399930;32;33989;-81
2024/01/27 06:44:32;;;;;;;;;;;;;;;5.21;61.13;100611.31;4396657;32;34926;-81
2024/01/27 06:47:08;;;;;;;;;;;;;;;5.15;61.22;100621.47;4398047;32;33709;-81
2024/01/27 06:49:37;;;;;;;;;;;;;;;4.96;61.81;100622.72;4399827;32;34049;-81
2024/01/27 06:52:12;;;;;;;;;;;;;;;5.08;61.12;100617.88;4392177;32;35239;-80
2024/01/27 06:54:44;;;;;;;;;;;;;;;5.01;61.66;100610.84;4391259;32;34162;-81
2024/01/27 06:57:20;;;;;;;;;;;;;;;5.18;61.19;100607.81;4391670;32;33059;-81
2024/01/27 06:59:52;;;;;;;;;;;;;;;5.13;61.26;100605.12;4386609;32;33853;-81
2024/01/27 07:02:28;;;;;;;;;;;;;;;5.11;61.44;100592.22;4392242;32;34542;-81
2024/01/27 07:04:57;;;;;;;;;;;;;;;4.98;61.44;100610.78;4395734;32;34075;-81
2024/01/27 07:07:28;;;;;;;;;;;;;;;5.02;61.45;100604.84;4387350;32;33546;-81
2024/01/27 07:09:57;;;;;;;;;;;;;;;5.17;61.43;100604.38;4386485;32;33655;-81
2024/01/27 07:12:26;;;;;;;;;;;;;;;5.18;61.28;100610.37;4387078;32;34311;-82
2024/01/27 07:15:00;;;;;;;;;;;;;;;5.37;60.68;100614.25;4392251;32;33096;-81
2024/01/27 07:17:32;;;;;;;;;;;;;;;5.22;61.61;100597.63;4382650;32;31463;-81
2024/01/27 07:20:01;;;;;;;;;;;;;;;5.32;60.96;100629.59;4389112;32;33167;-81
2024/01/27 07:22:34;;;;;;;;;;;;;;;5.12;61.72;100631.66;4399007;32;34619;-81
2024/01/27 07:25:04;;;;;;;;;;;;;;;5.17;61.72;100636.91;4406421;32;34790;-81
2024/01/27 07:27:35;;;;;;;;;;;;;;;5.07;62.39;100643.53;4406217;32;32794;-81
2024/01/27 07:30:09;;;;;;;;;;;;;;;5.02;62.31;100638.28;4398591;32;33143;-81
2024/01/27 07:32:46;;;;;;;;;;;;;;;5.14;62.26;100640.28;4392705;32;34041;-81
2024/01/27 07:35:15;;;;;;;;;;;;;;;5.19;61.82;100646.41;4394853;32;34170;-81
2024/01/27 07:37:44;;;;;;;;;;;;;;;5.40;61.52;100648.62;4390694;32;33016;-81
2024/01/27 07:40:15;;;;;;;;;;;;;;;5.45;60.94;100649.59;4384805;32;33526;-81
2024/01/27 07:42:46;;;;;;;;;;;;;;;5.32;61.17;100645.88;4386270;32;33824;-81
2024/01/27 07:45:20;;;;;;;;;;;;;;;5.52;60.91;100641.19;4389376;32;33613;-81
2024/01/27 07:47:49;;;;;;;;;;;;;;;5.38;61.37;100636.56;4395861;32;32907;-81
2024/01/27 07:50:18;;;;;;;;;;;;;;;5.16;61.48;100633.47;4398812;32;33854;-80
2024/01/27 07:52:50;;;;;;;;;;;;;;;5.43;60.62;100645.25;4393569;32;34437;-81
2024/01/27 07:55:21;;;;;;;;;;;;;;;5.48;60.94;100651.38;4392546;32;34334;-82
2024/01/27 07:57:50;;;;;;;;;;;;;;;5.54;60.35;100654.97;4391525;32;34394;-81
2024/01/27 08:00:27;;;;;;;;;;;;;;;5.71;60.10;100652.75;4399585;32;33681;-81
2024/01/27 08:02:57;;;;;;;;;;;;;;;5.38;60.58;100652.00;4398224;32;34505;-81
2024/01/27 08:05:27;;;;;;;;;;;;;;;5.50;60.58;100671.16;4394170;32;34472;-81
2024/01/27 08:07:56;;;;;;;;;;;;;;;5.82;59.83;100676.16;4392687;32;34168;-81
2024/01/27 08:10:26;;;;;;;;;;;;;;;5.95;59.57;100685.06;4393789;32;34268;-81
2024/01/27 08:12:58;;;;;;;;;;;;;;;5.78;59.60;100694.97;4396561;32;34084;-81
2024/01/27 08:15:31;;;;;;;;;;;;;;;5.64;60.05;100697.22;4385401;32;33671;-81
2024/01/27 08:18:01;;;;;;;;;;;;;;;5.85;60.21;100708.88;4386515;32;33076;-81
2024/01/27 08:20:30;;;;;;;;;;;;;;;5.66;59.94;100710.16;4372378;32;33771;-81
2024/01/27 08:22:59;;;;;;;;;;;;;;;5.53;60.29;100704.72;4386410;32;34777;-81
2024/01/27 08:25:31;;;;;;;;;;;;;;;5.71;59.94;100687.94;4386682;32;34676;-81
2024/01/27 08:28:00;;;;;;;;;;;;;;;5.83;59.89;100690.78;4387122;32;32753;-81
2024/01/27 08:30:30;;;;;;;;;;;;;;;5.95;59.09;100680.78;4385054;32;33790;-81
2024/01/27 08:33:01;;;;;;;;;;;;;;;5.81;59.29;100691.59;4385088;32;34100;-81
2024/01/27 08:35:36;;;;;;;;;;;;;;;5.94;59.24;100694.50;4390932;32;34134;-81
2024/01/27 08:38:06;;;;;;;;;;;;;;;5.84;59.09;100699.38;4386447;32;32958;-81
2024/01/27 08:40:35;;;;;;;;;;;;;;;5.87;59.25;100699.44;4385141;32;34038;-81
2024/01/27 08:43:04;;;;;;;;;;;;;;;6.05;59.22;100689.56;4384818;32;34638;-81
2024/01/27 08:45:40;;;;;;;;;;;;;;;6.05;58.42;100707.63;4388123;32;33763;-81
2024/01/27 08:48:09;;;;;;;;;;;;;;;6.03;58.13;100716.16;4389811;32;33118;-81
2024/01/27 08:50:39;;;;;;;;;;;;;;;6.16;58.21;100725.84;4399291;32;34261;-81
2024/01/27 08:53:07;;;;;;;;;;;;;;;6.26;57.37;100719.19;4388659;32;34819;-81
2024/01/27 08:55:40;;;;;;;;;;;;;;;6.23;56.83;100722.56;4394474;32;33838;-81
2024/01/27 08:58:09;;;;;;;;;;;;;;;6.18;56.70;100722.47;4395627;32;32784;-81
2024/01/27 09:00:43;;;;;;;;;;;;;;;6.07;56.79;100725.69;4389171;32;34225;-81
2024/01/27 09:03:16;;;;;;;;;;;;;;;5.92;56.86;100736.47;4391688;32;33900;-81
2024/01/27 09:05:46;;;;;;;;;;;;;;;6.16;56.73;100733.59;4393545;32;34968;-80
2024/01/27 09:08:15;;;;;;;;;;;;;;;6.42;55.59;100739.28;4391503;32;33498;-81
2024/01/27 09:10:44;;;;;;;;;;;;;;;6.44;55.72;100734.19;4396631;32;33506;-81
2024/01/27 09:13:13;;;;;;;;;;;;;;;6.21;55.47;100708.81;4391149;32;34261;-81
2024/01/27 09:15:44;;;;;;;;;;;;;;;6.04;56.00;100734.22;4391859;32;33718;-81
2024/01/27 09:18:19;;;;;;;;;;;;;;;6.06;55.88;100735.09;4376814;32;32481;-81
2024/01/27 09:20:56;;;;;;;;;;;;;;;6.40;54.71;100731.56;4392657;32;34154;-81
2024/01/27 09:23:29;;;;;;;;;;;;;;;6.30;54.80;100736.47;4392682;32;34552;-82
2024/01/27 09:25:59;;;;;;;;;;;;;;;6.24;54.90;100728.63;4393782;32;34457;-81
2024/01/27 09:28:28;;;;;;;;;;;;;;;6.19;55.29;100733.69;4387997;32;34256;-80
2024/01/27 09:30:58;;;;;;;;;;;;;;;6.45;54.97;100746.22;4393490;32;34199;-81
2024/01/27 09:33:35;;;;;;;;;;;;;;;6.34;54.63;100721.09;4396790;32;34242;-82
2024/01/27 09:36:04;;;;;;;;;;;;;;;6.13;54.82;100743.84;4393697;32;35381;-81
2024/01/27 09:38:34;;;;;;;;;;;;;;;6.14;54.36;100735.28;4393914;32;33328;-81
2024/01/27 09:41:04;;;;;;;;;;;;;;;6.35;53.96;100733.13;4400505;32;33891;-81
2024/01/27 09:43:33;;;;;;;;;;;;;;;6.20;54.77;100735.41;4391031;32;34796;-81
2024/01/27 09:46:02;;;;;;;;;;;;;;;6.41;53.27;100756.47;4390986;32;34148;-81
2024/01/27 09:48:36;;;;;;;;;;;;;;;6.36;53.00;100739.19;4389940;32;33281;-81
2024/01/27 09:51:06;;;;;;;;;;;;;;;6.61;52.86;100748.28;4393527;32;34960;-81
2024/01/27 09:53:38;;;;;;;;;;;;;;;6.79;53.16;100760.66;4393239;32;35114;-81
2024/01/27 09:56:07;;;;;;;;;;;;;;;6.62;52.51;100774.09;4402794;32;34468;-81
2024/01/27 09:58:42;;;;;;;;;;;;;;;6.50;52.28;100762.66;4403808;32;33011;-81
2024/01/27 10:01:11;;;;;;;;;;;;;;;6.68;52.90;100773.34;4386449;32;34479;-81
2024/01/27 10:03:43;;;;;;;;;;;;;;;7.11;51.99;100761.28;4386722;32;35692;-81
2024/01/27 10:06:12;;;;;;;;;;;;;;;7.09;51.22;100767.25;4389194;32;33910;-81
2024/01/27 10:08:42;;;;;;;;;;;;;;;7.03;50.88;100767.97;4392958;32;33393;-81
2024/01/27 10:11:12;;;;;;;;;;;;;;;7.00;50.51;100747.28;4392181;32;33574;-81
2024/01/27 10:13:41;;;;;;;;;;;;;;;7.16;50.42;100754.47;4394003;32;34221;-81
2024/01/27 10:16:12;;;;;;;;;;;;;;;7.15;49.23;100759.59;4386683;32;34145;-81
2024/01/27 10:18:41;;;;;;;;;;;;;;;7.05;49.26;100756.88;4391781;32;33363;-81
2024/01/27 10:21:14;;;;;;;;;;;;;;;6.98;50.26;100746.38;4389515;32;33895;-81
2024/01/27 10:23:44;;;;;;;;;;;;;;;6.83;50.05;100734.94;4393553;32;35027;-81
2024/01/27 10:26:14;;;;;;;;;;;;;;;6.82;50.20;100750.41;4394277;32;33964;-80
2024/01/27 10:28:46;;;;;;;;;;;;;;;6.77;49.76;100742.59;4388842;32;33476;-82
2024/01/27 10:31:17;;;;;;;;;;;;;;;6.96;49.53;100742.91;4391332;32;33985;-81
2024/01/27 10:33:53;;;;;;;;;;;;;;;6.90;50.07;100735.94;4386361;32;34992;-81
2024/01/27 10:36:22;;;;;;;;;;;;;;;7.10;48.88;100744.03;4388167;32;34290;-80
2024/01/27 10:38:58;;;;;;;;;;;;;;;7.00;49.16;100760.19;4386496;32;33372;-80
2024/01/27 10:41:28;;;;;;;;;;;;;;;7.04;49.17;100764.56;4400358;32;34124;-81
2024/01/27 10:43:59;;;;;;;;;;;;;;;7.13;49.12;100762.16;4394441;32;33498;-81
2024/01/27 10:46:28;;;;;;;;;;;;;;;7.28;48.62;100763.28;4387401;32;34667;-80
2024/01/27 10:49:02;;;;;;;;;;;;;;;6.87;49.23;100751.38;4372020;32;32310;-81
2024/01/27 10:51:37;;;;;;;;;;;;;;;7.01;48.84;100742.19;4376800;32;34384;-81
2024/01/27 10:54:07;;;;;;;;;;;;;;;7.23;48.87;100750.28;4385958;32;33364;-81
2024/01/27 10:56:37;;;;;;;;;;;;;;;6.81;48.31;100772.75;4382662;32;34435;-81
2024/01/27 10:59:10;;;;;;;;;;;;;;;6.62;48.38;100775.81;4382161;32;34174;-80
2024/01/27 11:01:42;;;;;;;;;;;;;;;6.68;48.62;100767.31;4382891;32;33679;-81
2024/01/27 11:04:13;;;;;;;;;;;;;;;6.76;48.73;100778.66;4384522;32;34301;-80
2024/01/27 11:06:47;;;;;;;;;;;;;;;6.74;49.07;100760.59;4374625;32;33635;-80
2024/01/27 11:09:17;;;;;;;;;;;;;;;7.01;49.00;100775.72;4383097;32;34527;-81
2024/01/27 11:11:49;;;;;;;;;;;;;;;6.92;47.75;100760.06;4382816;32;34628;-81
2024/01/27 11:14:19;;;;;;;;;;;;;;;7.03;48.00;100757.66;4385789;32;34639;-80
2024/01/27 11:16:55;;;;;;;;;;;;;;;6.93;47.36;100766.06;4389725;32;34816;-81
2024/01/27 11:19:25;;;;;;;;;;;;;;;6.77;48.31;100746.88;4393429;32;32933;-81
2024/01/27 11:22:05;;;;;;;;;;;;;;;6.88;48.55;100759.97;4393778;32;35522;-81
2024/01/27 11:24:37;;;;;;;;;;;;;;;6.93;48.30;100738.56;4385989;32;33637;-80
2024/01/27 11:27:10;;;;;;;;;;;;;;;6.80;48.18;100718.56;4392290;32;33927;-81
2024/01/27 11:29:47;;;;;;;;;;;;;;;6.96;47.73;100736.06;4384591;32;32832;-81
2024/01/27 11:32:17;;;;;;;;;;;;;;;6.83;47.77;100740.09;4388653;32;33135;-81
2024/01/27 11:34:48;;;;;;;;;;;;;;;6.77;47.55;100721.09;4386708;32;33910;-80
2024/01/27 11:37:19;;;;;;;;;;;;;;;6.52;47.67;100730.03;4389784;32;33996;-82
2024/01/27 11:42:22;;;;;;;;;;;;;;;7.03;47.33;100727.59;4391702;32;34568;-81
2024/01/27 11:44:52;;;;;;;;;;;;;;;7.03;47.56;100722.44;4390373;32;34852;-81
2024/01/27 11:47:24;;;;;;;;;;;;;;;6.95;48.65;100726.56;4386647;32;34071;-81
2024/01/27 11:49:56;;;;;;;;;;;;;;;6.77;49.24;100715.94;4384500;32;32845;-80
2024/01/27 11:52:28;;;;;;;;;;;;;;;6.68;48.51;100739.81;4385029;32;33252;-81
2024/01/27 11:54:59;;;;;;;;;;;;;;;6.65;48.77;100733.75;4390605;32;34297;-81
2024/01/27 11:57:28;;;;;;;;;;;;;;;6.79;48.74;100733.16;4384965;32;33493;-81
2024/01/27 12:00:01;;;;;;;;;;;;;;;6.70;49.34;100729.56;4384825;32;33421;-80
2024/01/27 12:02:33;;;;;;;;;;;;;;;6.86;49.48;100700.59;4385555;32;34543;-81
2024/01/27 12:05:10;;;;;;;;;;;;;;;6.80;50.00;100719.41;4391813;32;33498;-81
2024/01/27 12:07:40;;;;;;;;;;;;;;;6.82;49.47;100722.91;4391840;32;34145;-81
2024/01/27 12:10:11;;;;;;;;;;;;;;;6.77;48.38;100708.19;4386314;32;33584;-81
2024/01/27 12:12:40;;;;;;;;;;;;;;;6.71;47.80;100702.91;4386191;32;34078;-81
2024/01/27 12:15:12;;;;;;;;;;;;;;;6.46;48.84;100724.78;4389437;32;33273;-81
2024/01/27 12:17:45;;;;;;;;;;;;;;;6.57;49.02;100716.44;4391840;32;33923;-81
2024/01/27 12:20:21;;;;;;;;;;;;;;;6.70;49.31;100743.31;4390261;32;32996;-81
2024/01/27 12:22:52;;;;;;;;;;;;;;;6.61;50.02;100743.13;4385786;32;33913;-81
2024/01/27 12:25:25;;;;;;;;;;;;;;;6.71;49.76;100742.44;4386659;32;33621;-81
2024/01/27 12:27:54;;;;;;;;;;;;;;;6.79;49.04;100740.00;4386134;32;34956;-81
2024/01/27 12:30:28;;;;;;;;;;;;;;;6.87;48.74;100742.75;4391707;32;33042;-81
2024/01/27 12:32:57;;;;;;;;;;;;;;;6.70;49.46;100752.75;4386051;32;34211;-80
2024/01/27 12:35:33;;;;;;;;;;;;;;;6.71;49.40;100754.47;4386097;32;34083;-81
2024/01/27 12:38:04;;;;;;;;;;;;;;;6.87;49.62;100747.91;4386632;32;34297;-81
2024/01/27 12:40:33;;;;;;;;;;;;;;;6.91;49.76;100741.97;4386066;32;32699;-81
2024/01/27 12:43:02;;;;;;;;;;;;;;;6.87;49.28;100735.03;4391445;32;34056;-81
2024/01/27 12:45:39;;;;;;;;;;;;;;;6.66;49.68;100736.34;4385633;32;34504;-80
2024/01/27 12:48:09;;;;;;;;;;;;;;;6.60;49.59;100731.94;4386138;32;34233;-81
2024/01/27 12:50:38;;;;;;;;;;;;;;;6.65;49.45;100739.78;4386253;32;33612;-81
2024/01/27 12:53:08;;;;;;;;;;;;;;;6.83;49.78;100737.53;4390292;32;34842;-80
2024/01/27 12:55:37;;;;;;;;;;;;;;;6.65;49.45;100729.47;4390099;32;33762;-81
2024/01/27 12:58:06;;;;;;;;;;;;;;;6.68;49.29;100742.41;4382550;32;34464;-80
2024/01/27 13:00:34;;;;;;;;;;;;;;;6.90;48.45;100724.75;4379468;32;33438;-82
2024/01/27 13:03:07;;;;;;;;;;;;;;;6.96;48.01;100710.28;4389948;32;33805;-81
2024/01/27 13:05:43;;;;;;;;;;;;;;;6.83;49.05;100719.47;4385644;32;33847;-81
2024/01/27 13:08:13;;;;;;;;;;;;;;;6.76;48.84;100735.66;4387273;32;34240;-80
2024/01/27 13:10:42;;;;;;;;;;;;;;;6.62;48.70;100739.72;4381925;32;34007;-81